createdAt,value
2023-03-12T00:00:16.748Z,3.87
2023-03-12T00:02:45.144Z,4.90
2023-03-12T00:05:13.303Z,4.40
2023-03-12T00:07:41.247Z,4.50
2023-03-12T00:10:10.619Z,4.03
2023-03-12T00:12:38.568Z,4.73
2023-03-12T00:15:07.917Z,5.90
2023-03-12T00:17:37.512Z,4.50
2023-03-12T00:20:06.721Z,4.40
2023-03-12T00:22:34.769Z,4.33
2023-03-12T00:25:03.466Z,4.00
2023-03-12T00:27:31.394Z,3.80
2023-03-12T00:29:59.393Z,4.07
2023-03-12T00:32:27.332Z,4.40
2023-03-12T00:34:57.307Z,4.23
2023-03-12T00:37:25.296Z,3.97
2023-03-12T00:39:53.235Z,4.00
2023-03-12T00:42:21.242Z,4.40
2023-03-12T00:44:49.166Z,4.87
2023-03-12T00:47:17.204Z,3.70
2023-03-12T00:49:45.177Z,4.03
2023-03-12T00:52:14.599Z,4.00
2023-03-12T00:54:42.546Z,4.37
2023-03-12T00:57:10.509Z,3.97
2023-03-12T00:59:40.429Z,3.40
2023-03-12T01:02:08.999Z,3.90
2023-03-12T01:04:37.057Z,4.03
2023-03-12T01:07:05.224Z,3.90
2023-03-12T01:09:34.592Z,4.07
2023-03-12T01:12:02.519Z,4.57
2023-03-12T01:14:30.572Z,4.30
2023-03-12T01:16:58.509Z,3.80
2023-03-12T01:19:26.743Z,4.40
2023-03-12T01:21:54.719Z,4.80
2023-03-12T01:24:22.654Z,4.43
2023-03-12T01:26:52.019Z,4.77
2023-03-12T01:29:20.058Z,4.80
2023-03-12T01:31:48.027Z,4.40
2023-03-12T01:34:16.007Z,4.17
2023-03-12T01:36:45.059Z,3.90
2023-03-12T01:39:13.083Z,3.60
2023-03-12T01:41:42.090Z,4.53
2023-03-12T01:44:15.535Z,3.60
2023-03-12T01:46:45.734Z,4.57
2023-03-12T01:49:16.175Z,4.27
2023-03-12T01:51:48.317Z,4.50
2023-03-12T01:54:20.825Z,3.90
2023-03-12T01:56:49.858Z,4.50
2023-03-12T01:59:23.931Z,5.17
2023-03-12T02:01:52.306Z,4.80
2023-03-12T02:04:23.626Z,4.57
2023-03-12T02:06:59.051Z,4.50
2023-03-12T02:09:27.524Z,4.60
2023-03-12T02:11:55.746Z,4.40
2023-03-12T02:14:25.347Z,4.80
2023-03-12T02:16:55.182Z,3.93
2023-03-12T02:19:31.284Z,4.43
2023-03-12T02:22:00.308Z,4.50
2023-03-12T02:24:34.775Z,4.47
2023-03-12T02:27:05.882Z,5.00
2023-03-12T02:29:35.335Z,3.90
2023-03-12T02:32:06.794Z,4.87
2023-03-12T02:34:35.930Z,4.57
2023-03-12T02:37:04.023Z,3.90
2023-03-12T02:39:31.955Z,3.73
2023-03-12T02:42:01.380Z,4.83
2023-03-12T02:44:33.362Z,4.83
2023-03-12T02:47:03.107Z,4.63
2023-03-12T02:49:33.142Z,3.97
2023-03-12T02:52:01.823Z,4.03
2023-03-12T02:54:29.964Z,4.53
2023-03-12T02:56:58.235Z,4.83
2023-03-12T02:59:26.974Z,4.50
2023-03-12T03:01:58.359Z,4.70
2023-03-12T03:04:27.944Z,5.20
2023-03-12T03:06:56.172Z,4.43
2023-03-12T03:09:25.830Z,4.30
2023-03-12T03:11:53.945Z,4.37
2023-03-12T03:14:23.210Z,5.13
2023-03-12T03:16:51.511Z,4.73
2023-03-12T03:19:20.791Z,4.70
2023-03-12T03:21:48.759Z,4.53
2023-03-12T03:24:16.880Z,4.83
2023-03-12T03:26:45.189Z,4.53
2023-03-12T03:29:13.093Z,4.43
2023-03-12T03:31:41.081Z,5.17
2023-03-12T03:34:09.016Z,4.50
2023-03-12T03:36:38.299Z,3.90
2023-03-12T03:39:06.206Z,4.50
2023-03-12T03:41:34.621Z,4.80
2023-03-12T03:44:02.569Z,4.70
2023-03-12T03:46:30.542Z,4.27
2023-03-12T03:48:58.655Z,4.30
2023-03-12T03:51:26.578Z,3.70
2023-03-12T03:53:56.090Z,4.37
2023-03-12T03:56:24.055Z,4.90
2023-03-12T03:58:51.919Z,3.80
2023-03-12T04:01:20.364Z,4.87
2023-03-12T04:03:48.338Z,5.03
2023-03-12T04:06:16.306Z,4.33
2023-03-12T04:08:44.258Z,4.50
2023-03-12T04:11:16.570Z,4.40
2023-03-12T04:13:44.918Z,3.90
2023-03-12T04:16:13.934Z,4.57
2023-03-12T04:18:42.205Z,4.60
2023-03-12T04:21:12.240Z,4.03
2023-03-12T04:23:40.251Z,4.80
2023-03-12T04:26:08.526Z,4.23
2023-03-12T04:28:38.321Z,4.17
2023-03-12T04:31:08.721Z,4.70
2023-03-12T04:33:39.225Z,4.30
2023-03-12T04:36:07.908Z,5.03
2023-03-12T04:38:35.907Z,4.70
2023-03-12T04:41:05.934Z,5.20
2023-03-12T04:43:34.497Z,4.50
2023-03-12T04:46:04.930Z,3.97
2023-03-12T04:48:33.041Z,4.57
2023-03-12T04:51:01.027Z,4.47
2023-03-12T04:53:29.083Z,4.40
2023-03-12T04:55:57.031Z,4.50
2023-03-12T04:58:25.323Z,4.40
2023-03-12T05:00:53.343Z,4.97
2023-03-12T05:03:23.019Z,3.90
2023-03-12T05:05:50.968Z,3.93
2023-03-12T05:08:19.040Z,4.40
2023-03-12T05:10:47.238Z,4.50
2023-03-12T05:13:16.462Z,4.50
2023-03-12T05:15:45.021Z,4.30
2023-03-12T05:18:13.073Z,3.83
2023-03-12T05:20:42.351Z,4.53
2023-03-12T05:23:10.326Z,5.17
2023-03-12T05:25:41.297Z,3.93
2023-03-12T05:28:09.648Z,4.50
2023-03-12T05:30:37.648Z,4.57
2023-03-12T05:33:05.577Z,4.00
2023-03-12T05:35:33.538Z,4.07
2023-03-12T05:38:02.792Z,3.93
2023-03-12T05:40:31.466Z,3.57
2023-03-12T05:42:59.371Z,4.13
2023-03-12T05:45:27.362Z,3.90
2023-03-12T05:47:55.297Z,4.23
2023-03-12T05:50:23.853Z,4.10
2023-03-12T05:52:52.113Z,3.70
2023-03-12T05:55:21.456Z,4.03
2023-03-12T05:57:49.377Z,4.53
2023-03-12T06:00:18.695Z,4.17
2023-03-12T06:02:46.601Z,4.23
2023-03-12T06:05:14.764Z,4.43
2023-03-12T06:07:42.673Z,3.67
2023-03-12T06:10:11.865Z,4.00
2023-03-12T06:12:41.531Z,3.73
2023-03-12T06:15:10.618Z,3.50
2023-03-12T06:17:38.538Z,4.47
2023-03-12T06:20:07.793Z,3.77
2023-03-12T06:22:35.939Z,4.37
2023-03-12T06:25:04.358Z,3.63
2023-03-12T06:27:32.344Z,4.10
2023-03-12T06:30:01.605Z,2.90
2023-03-12T06:32:29.816Z,3.83
2023-03-12T06:35:00.379Z,4.00
2023-03-12T06:37:28.370Z,3.80
2023-03-12T06:39:56.282Z,3.40
2023-03-12T06:42:26.422Z,3.80
2023-03-12T06:44:54.507Z,3.53
2023-03-12T06:47:23.867Z,3.60
2023-03-12T06:49:51.807Z,3.60
2023-03-12T06:52:19.785Z,3.67
2023-03-12T06:54:47.694Z,3.20
2023-03-12T06:57:16.594Z,3.43
2023-03-12T06:59:44.831Z,3.70
2023-03-12T07:02:13.202Z,3.33
2023-03-12T07:04:42.498Z,4.23
2023-03-12T07:07:11.948Z,3.37
2023-03-12T07:09:40.028Z,3.13
2023-03-12T07:12:08.606Z,3.67
2023-03-12T07:14:36.505Z,3.70
2023-03-12T07:17:04.674Z,3.37
2023-03-12T07:19:32.596Z,3.50
2023-03-12T07:22:02.136Z,3.07
2023-03-12T07:24:30.279Z,3.37
2023-03-12T07:26:58.243Z,3.83
2023-03-12T07:29:26.108Z,3.37
2023-03-12T07:31:54.020Z,3.47
2023-03-12T07:34:22.033Z,3.33
2023-03-12T07:36:50.067Z,2.67
2023-03-12T07:39:19.566Z,3.57
2023-03-12T07:41:47.884Z,3.70
2023-03-12T07:44:15.870Z,3.93
2023-03-12T07:46:44.584Z,3.33
2023-03-12T07:49:12.570Z,3.50
2023-03-12T07:51:40.636Z,3.67
2023-03-12T07:54:08.504Z,3.60
2023-03-12T07:56:37.761Z,3.33
2023-03-12T07:59:05.836Z,3.27
2023-03-12T08:01:34.076Z,3.07
2023-03-12T08:04:02.911Z,3.70
2023-03-12T08:06:31.198Z,3.10
2023-03-12T08:08:59.111Z,3.30
2023-03-12T08:11:26.993Z,3.50
2023-03-12T08:13:56.229Z,3.27
2023-03-12T08:16:24.208Z,3.37
2023-03-12T08:18:52.339Z,3.20
2023-03-12T08:21:20.270Z,3.13
2023-03-12T08:23:48.651Z,3.57
2023-03-12T08:26:16.799Z,2.97
2023-03-12T08:28:44.960Z,3.73
2023-03-12T08:31:14.253Z,3.33
2023-03-12T08:33:43.566Z,3.33
2023-03-12T08:36:11.769Z,3.67
2023-03-12T08:38:40.416Z,3.40
2023-03-12T08:41:08.414Z,2.97
2023-03-12T08:43:36.307Z,3.40
2023-03-12T08:46:05.180Z,3.07
2023-03-12T08:48:34.633Z,3.07
2023-03-12T08:51:04.230Z,3.30
2023-03-12T08:53:33.377Z,3.33
2023-03-12T08:56:01.341Z,3.00
2023-03-12T08:58:29.775Z,3.40
2023-03-12T09:00:58.645Z,2.93
2023-03-12T09:03:27.168Z,2.90
2023-03-12T09:06:07.081Z,3.10
2023-03-12T09:08:34.980Z,2.73
2023-03-12T09:11:03.903Z,2.30
2023-03-12T09:13:50.729Z,3.30
2023-03-12T09:16:19.907Z,3.10
2023-03-12T09:18:47.961Z,2.90
2023-03-12T09:21:17.268Z,3.10
2023-03-12T09:23:45.185Z,2.97
2023-03-12T09:26:14.635Z,2.77
2023-03-12T09:28:42.637Z,3.20
2023-03-12T09:31:10.574Z,3.20
2023-03-12T09:33:38.864Z,3.03
2023-03-12T09:36:08.520Z,2.70
2023-03-12T09:38:37.966Z,2.60
2023-03-12T09:41:07.226Z,2.60
2023-03-12T09:43:39.505Z,2.80
2023-03-12T09:46:15.210Z,2.83
2023-03-12T09:48:43.977Z,2.57
2023-03-12T09:51:18.374Z,3.23
2023-03-12T09:53:49.356Z,2.53
2023-03-12T09:56:20.215Z,2.50
2023-03-12T09:58:50.558Z,2.27
2023-03-12T10:01:31.471Z,2.77
2023-03-12T10:04:10.906Z,2.63
2023-03-12T10:06:47.220Z,2.60
2023-03-12T10:09:30.172Z,2.60
2023-03-12T10:12:10.483Z,2.80
2023-03-12T10:14:47.952Z,2.60
2023-03-12T10:17:38.203Z,2.30
2023-03-12T10:20:28.646Z,2.00
2023-03-12T10:23:02.755Z,2.00
2023-03-12T10:25:41.906Z,2.30
2023-03-12T10:28:16.544Z,1.90
2023-03-12T10:30:51.351Z,2.43
2023-03-12T10:33:21.849Z,2.27
2023-03-12T10:35:51.034Z,1.80
2023-03-12T10:38:26.380Z,1.80
2023-03-12T10:40:55.710Z,2.30
2023-03-12T10:43:24.077Z,2.33
2023-03-12T10:46:02.730Z,2.40
2023-03-12T10:48:30.667Z,2.30
2023-03-12T10:51:04.124Z,1.83
2023-03-12T10:53:34.351Z,2.13
2023-03-12T10:56:06.338Z,1.87
2023-03-12T10:58:39.980Z,1.77
2023-03-12T11:01:17.051Z,2.27
2023-03-12T11:03:46.427Z,1.80
2023-03-12T11:06:22.402Z,1.87
2023-03-12T11:09:16.090Z,1.70
2023-03-12T11:11:47.875Z,2.53
2023-03-12T11:14:19.386Z,1.90
2023-03-12T11:16:47.443Z,1.80
2023-03-12T11:19:26.679Z,1.83
2023-03-12T11:21:59.225Z,1.47
2023-03-12T11:24:27.203Z,2.40
2023-03-12T11:27:03.101Z,1.80
2023-03-12T11:29:33.260Z,1.97
2023-03-12T11:32:07.094Z,1.67
2023-03-12T11:34:38.043Z,1.33
2023-03-12T11:37:13.729Z,2.17
2023-03-12T11:40:10.736Z,1.90
2023-03-12T11:42:52.796Z,1.50
2023-03-12T11:45:27.902Z,1.73
2023-03-12T11:48:05.899Z,1.57
2023-03-12T11:50:45.927Z,1.77
2023-03-12T11:53:33.835Z,1.50
2023-03-12T11:56:14.338Z,1.77
2023-03-12T11:59:13.807Z,1.40
2023-03-12T12:01:56.917Z,1.50
2023-03-12T12:04:55.587Z,1.40
2023-03-12T12:07:38.431Z,1.13
2023-03-12T12:10:15.689Z,1.47
2023-03-12T12:12:52.691Z,1.77
2023-03-12T12:15:33.420Z,1.70
2023-03-12T12:18:13.965Z,1.60
2023-03-12T12:20:49.545Z,1.97
2023-03-12T12:23:19.388Z,1.53
2023-03-12T12:26:05.500Z,1.33
2023-03-12T12:28:58.688Z,1.33
2023-03-12T12:31:41.475Z,1.70
2023-03-12T12:34:44.204Z,1.40
2023-03-12T12:37:48.374Z,0.90
2023-03-12T12:40:22.141Z,1.20
2023-03-12T12:42:58.332Z,1.63
2023-03-12T12:45:30.464Z,1.53
2023-03-12T12:48:03.944Z,1.00
2023-03-12T12:50:36.054Z,1.10
2023-03-12T12:53:13.433Z,1.33
2023-03-12T12:55:48.182Z,1.03
2023-03-12T12:58:21.911Z,1.20
2023-03-12T13:00:52.336Z,1.57
2023-03-12T13:03:23.485Z,1.77
2023-03-12T13:05:58.902Z,1.10
2023-03-12T13:08:52.989Z,1.50
2023-03-12T13:11:27.077Z,1.40
2023-03-12T13:14:14.842Z,1.20
2023-03-12T13:16:43.917Z,0.90
2023-03-12T13:19:26.946Z,1.13
2023-03-12T13:22:16.424Z,1.20
2023-03-12T13:24:51.626Z,1.37
2023-03-12T13:27:23.883Z,1.20
2023-03-12T13:29:56.881Z,1.20
2023-03-12T13:33:12.952Z,0.90
2023-03-12T13:35:42.586Z,1.03
2023-03-12T13:38:19.031Z,1.20
2023-03-12T13:41:02.092Z,1.47
2023-03-12T13:43:47.735Z,1.27
2023-03-12T13:46:34.955Z,1.17
2023-03-12T13:49:10.914Z,1.07
2023-03-12T13:51:55.349Z,1.10
2023-03-12T13:54:26.965Z,1.33
2023-03-12T13:56:59.477Z,1.30
2023-03-12T13:59:29.480Z,1.40
2023-03-12T14:02:02.134Z,1.53
2023-03-12T14:04:38.444Z,1.20
2023-03-12T14:07:36.477Z,1.63
2023-03-12T14:10:14.895Z,1.30
2023-03-12T14:12:50.600Z,1.13
2023-03-12T14:15:34.287Z,1.27
2023-03-12T14:18:05.083Z,1.63
2023-03-12T14:20:38.184Z,1.23
2023-03-12T14:23:12.868Z,1.17
2023-03-12T14:25:44.498Z,2.03
2023-03-12T14:28:15.266Z,1.20
2023-03-12T14:30:49.609Z,1.10
2023-03-12T14:33:18.896Z,0.97
2023-03-12T14:35:52.320Z,1.07
2023-03-12T14:38:27.726Z,1.50
2023-03-12T14:41:01.605Z,1.30
2023-03-12T14:43:31.525Z,1.87
2023-03-12T14:46:01.390Z,1.30
2023-03-12T14:48:31.533Z,1.20
2023-03-12T14:51:00.836Z,2.03
2023-03-12T14:53:32.151Z,1.33
2023-03-12T14:56:05.757Z,1.53
2023-03-12T14:58:36.621Z,3.07
2023-03-12T15:01:07.386Z,1.23
2023-03-12T15:03:42.448Z,1.40
2023-03-12T15:06:18.830Z,2.30
2023-03-12T15:08:49.011Z,1.40
2023-03-12T15:11:22.857Z,1.50
2023-03-12T15:13:52.032Z,1.47
2023-03-12T15:16:20.931Z,1.67
2023-03-12T15:18:50.189Z,1.60
2023-03-12T15:21:18.756Z,1.37
2023-03-12T15:23:49.070Z,1.50
2023-03-12T15:26:29.057Z,2.03
2023-03-12T15:28:58.194Z,1.30
2023-03-12T15:31:26.303Z,1.33
2023-03-12T15:34:02.298Z,1.50
2023-03-12T15:36:32.202Z,1.20
2023-03-12T15:39:05.696Z,1.60
2023-03-12T15:41:43.869Z,1.60
2023-03-12T15:44:20.545Z,1.90
2023-03-12T15:46:49.872Z,1.67
2023-03-12T15:49:24.178Z,1.20
2023-03-12T15:52:05.598Z,1.90
2023-03-12T15:54:40.345Z,1.17
2023-03-12T15:57:23.203Z,1.50
2023-03-12T16:00:22.347Z,1.97
2023-03-12T16:02:56.533Z,2.13
2023-03-12T16:05:27.847Z,1.20
2023-03-12T16:07:56.229Z,1.57
2023-03-12T16:10:27.677Z,2.10
2023-03-12T16:13:02.158Z,1.90
2023-03-12T16:15:33.154Z,1.93
2023-03-12T16:18:01.124Z,1.20
2023-03-12T16:20:29.551Z,1.23
2023-03-12T16:22:57.953Z,1.93
2023-03-12T16:25:27.426Z,2.70
2023-03-12T16:27:58.682Z,1.60
2023-03-12T16:30:28.813Z,1.60
2023-03-12T16:32:58.314Z,1.87
2023-03-12T16:35:27.719Z,1.40
2023-03-12T16:37:56.902Z,1.50
2023-03-12T16:40:33.338Z,2.00
2023-03-12T16:43:05.785Z,1.30
2023-03-12T16:45:36.725Z,1.40
2023-03-12T16:48:07.371Z,1.37
2023-03-12T16:50:35.304Z,1.17
2023-03-12T16:53:04.803Z,1.00
2023-03-12T16:55:44.979Z,2.03
2023-03-12T16:58:16.219Z,1.90
2023-03-12T17:00:44.366Z,2.10
2023-03-12T17:03:19.977Z,2.43
2023-03-12T17:05:47.871Z,1.50
2023-03-12T17:08:16.469Z,1.80
2023-03-12T17:10:44.391Z,1.53
2023-03-12T17:13:20.741Z,2.20
2023-03-12T17:15:49.301Z,1.70
2023-03-12T17:18:18.295Z,2.50
2023-03-12T17:20:47.007Z,1.43
2023-03-12T17:23:15.044Z,1.23
2023-03-12T17:25:44.597Z,1.73
2023-03-12T17:28:13.627Z,2.70
2023-03-12T17:30:43.562Z,2.60
2023-03-12T17:33:13.864Z,1.60
2023-03-12T17:35:42.724Z,1.40
2023-03-12T17:38:11.511Z,1.63
2023-03-12T17:40:41.723Z,2.17
2023-03-12T17:43:09.711Z,1.30
2023-03-12T17:45:37.667Z,1.50
2023-03-12T17:48:07.315Z,2.60
2023-03-12T17:50:35.335Z,1.87
2023-03-12T17:53:03.371Z,1.60
2023-03-12T17:55:31.327Z,2.10
2023-03-12T17:57:59.373Z,1.97
2023-03-12T18:00:27.345Z,2.30
2023-03-12T18:02:55.377Z,1.90
2023-03-12T18:05:25.165Z,1.70
2023-03-12T18:07:53.210Z,1.47
2023-03-12T18:10:21.423Z,2.07
2023-03-12T18:12:49.428Z,1.40
2023-03-12T18:15:27.486Z,2.17
2023-03-12T18:17:56.773Z,3.20
2023-03-12T18:20:37.702Z,2.83
2023-03-12T18:23:06.601Z,3.63
2023-03-12T18:25:34.809Z,2.07
2023-03-12T18:28:02.776Z,2.17
2023-03-12T18:30:30.698Z,2.50
2023-03-12T18:32:58.704Z,2.70
2023-03-12T18:35:30.505Z,2.20
2023-03-12T18:38:01.229Z,2.57
2023-03-12T18:44:35.825Z,3.73
2023-03-12T18:47:12.574Z,2.77
2023-03-12T18:49:41.313Z,2.97
2023-03-12T18:52:10.703Z,4.53
2023-03-12T18:54:45.421Z,3.03
2023-03-12T18:57:13.376Z,3.20
2023-03-12T18:59:45.128Z,3.33
2023-03-12T19:02:13.300Z,4.67
2023-03-12T19:04:41.355Z,4.07
2023-03-12T19:07:11.027Z,4.10
2023-03-12T19:09:39.203Z,3.00
2023-03-12T19:12:07.382Z,3.40
2023-03-12T19:14:35.373Z,3.90
2023-03-12T19:17:03.274Z,4.63
2023-03-12T19:19:31.301Z,4.13
2023-03-12T19:21:59.357Z,4.23
2023-03-12T19:24:28.769Z,4.17
2023-03-12T19:26:56.824Z,4.17
2023-03-12T19:29:24.828Z,5.90
2023-03-12T19:31:52.839Z,4.30
2023-03-12T19:34:21.960Z,4.07
2023-03-12T19:36:49.877Z,4.63
2023-03-12T19:39:21.819Z,4.77
2023-03-12T19:41:51.307Z,6.10
2023-03-12T19:44:19.301Z,4.80
2023-03-12T19:46:47.334Z,4.80
2023-03-12T19:49:15.261Z,4.93
2023-03-12T19:51:43.361Z,4.70
2023-03-12T19:54:11.315Z,4.57
2023-03-12T19:56:39.232Z,4.23
2023-03-12T19:59:08.527Z,4.73
2023-03-12T20:01:37.995Z,3.60
2023-03-12T20:04:08.404Z,4.67
2023-03-12T20:06:36.455Z,4.77
2023-03-12T20:09:05.336Z,4.77
2023-03-12T20:11:35.349Z,4.00
2023-03-12T20:14:03.440Z,4.57
2023-03-12T20:16:32.838Z,4.67
2023-03-12T20:19:01.780Z,4.70
2023-03-12T20:21:44.143Z,4.80
2023-03-12T20:24:13.620Z,4.53
2023-03-12T20:26:42.537Z,4.97
2023-03-12T20:29:10.571Z,4.10
2023-03-12T20:31:42.594Z,5.30
2023-03-12T20:34:11.086Z,4.73
2023-03-12T20:36:39.452Z,3.73
2023-03-12T20:39:07.599Z,4.80
2023-03-12T20:41:35.597Z,5.27
2023-03-12T20:44:03.533Z,5.10
2023-03-12T20:46:31.485Z,5.17
2023-03-12T20:49:00.831Z,5.00
2023-03-12T20:51:28.838Z,4.47
2023-03-12T20:53:58.034Z,3.80
2023-03-12T20:56:25.944Z,4.40
2023-03-12T20:58:54.036Z,4.50
2023-03-12T21:01:22.056Z,4.13
2023-03-12T21:03:50.120Z,4.70
2023-03-12T21:06:19.483Z,3.73
2023-03-12T21:08:47.387Z,4.90
2023-03-12T21:11:15.323Z,4.63
2023-03-12T21:13:43.307Z,4.43
2023-03-12T21:16:12.004Z,4.40
2023-03-12T21:18:39.942Z,3.90
2023-03-12T21:21:09.234Z,4.10
2023-03-12T21:23:38.848Z,3.83
2023-03-12T21:26:09.588Z,4.70
2023-03-12T21:28:37.878Z,3.93
2023-03-12T21:31:07.300Z,4.23
2023-03-12T21:33:35.871Z,4.73
2023-03-12T21:36:06.216Z,4.90
2023-03-12T21:38:35.691Z,3.90
2023-03-12T21:41:07.631Z,3.67
2023-03-12T21:43:35.618Z,4.50
2023-03-12T21:46:08.084Z,4.73
2023-03-12T21:48:36.912Z,4.37
2023-03-12T21:51:05.986Z,4.50
2023-03-12T21:53:35.442Z,3.97
2023-03-12T21:56:04.532Z,3.87
2023-03-12T21:58:34.830Z,4.47
2023-03-12T22:01:08.877Z,3.53
2023-03-12T22:03:37.464Z,5.57
2023-03-12T22:06:06.419Z,4.67
2023-03-12T22:08:35.333Z,3.83
2023-03-12T22:11:03.898Z,3.70
2023-03-12T22:13:33.209Z,4.27
2023-03-12T22:16:03.047Z,3.47
2023-03-12T22:18:31.371Z,5.03
2023-03-12T22:21:01.677Z,4.20
2023-03-12T22:23:30.118Z,3.90
2023-03-12T22:26:01.480Z,3.90
2023-03-12T22:28:29.440Z,5.03
2023-03-12T22:31:02.932Z,3.60
2023-03-12T22:33:31.587Z,4.43
2023-03-12T22:35:59.676Z,4.50
2023-03-12T22:38:27.601Z,4.60
2023-03-12T22:40:55.990Z,3.70
2023-03-12T22:43:26.403Z,4.23
2023-03-12T22:45:54.542Z,4.00
2023-03-12T22:48:23.871Z,3.77
2023-03-12T22:50:54.424Z,3.63
2023-03-12T22:53:22.743Z,4.17
2023-03-12T22:55:57.828Z,4.17
2023-03-12T22:58:25.798Z,4.00
2023-03-12T23:00:59.934Z,3.63
2023-03-12T23:03:29.816Z,3.73
2023-03-12T23:05:58.118Z,4.03
2023-03-12T23:08:26.407Z,4.37
2023-03-12T23:10:55.313Z,3.60
2023-03-12T23:13:23.931Z,4.10
2023-03-12T23:15:51.981Z,3.73
2023-03-12T23:18:20.736Z,3.70
2023-03-12T23:20:59.556Z,3.37
2023-03-12T23:23:27.655Z,4.47
2023-03-12T23:25:56.429Z,3.53
2023-03-12T23:28:25.336Z,7.00
2023-03-12T23:30:57.732Z,3.47
2023-03-12T23:33:26.840Z,5.60
2023-03-12T23:35:57.996Z,3.80
2023-03-12T23:38:26.584Z,3.70
2023-03-12T23:40:54.548Z,3.20
2023-03-12T23:43:22.480Z,4.10
2023-03-12T23:45:57.337Z,4.13
2023-03-12T23:48:25.461Z,3.70
2023-03-12T23:50:53.520Z,4.53
2023-03-12T23:53:22.964Z,3.20
2023-03-12T23:55:57.802Z,3.50
2023-03-12T23:58:26.311Z,4.80
